Perry, Utah
Current Conditions -  °F | °C
As of 10:55 AM on Saturday 25 Oct 2014 (Local Time) from KBMC Reporting Station
Clear Clear  
Wind Chill: 19°   Ceiling: Unl
Heat Index: 19°   Visibility: 5mi
Dew Point: -1°   Wind: 9mph
Humidity: 26%   Direction: 170°S
Pressure: 30.07"   Gusts: 17mph
Location:  41.4833°N, 112.095°W
Report Text: KBMC 251655Z AUTO 17008G15KT 5SM CLR 19/M01 A3007 RMK AO1 T01931009
Loading
Personal Weather Stations






























Interactive Weather Map
Tropical Storm Tracking
New forecast layout! Learn more

10-Day Weather Forecast

Advertisements
Track Severe Weather on mobile